sensor_id;sensor_type;location;lat;lon;timestamp;P1;durP1;ratioP1;P2;durP2;ratioP2
39740;SDS011;25426;53.478;10.190;2023-06-04T00:01:26;3.05;;;2.63;;
39740;SDS011;25426;53.478;10.190;2023-06-04T00:03:57;3.55;;;2.60;;
39740;SDS011;25426;53.478;10.190;2023-06-04T00:06:28;3.63;;;2.80;;
39740;SDS011;25426;53.478;10.190;2023-06-04T00:08:58;3.80;;;2.90;;
39740;SDS011;25426;53.478;10.190;2023-06-04T00:11:29;3.30;;;2.50;;
39740;SDS011;25426;53.478;10.190;2023-06-04T00:14:02;3.17;;;2.78;;
39740;SDS011;25426;53.478;10.190;2023-06-04T00:16:33;3.27;;;2.70;;
39740;SDS011;25426;53.478;10.190;2023-06-04T00:19:05;4.30;;;2.58;;
39740;SDS011;25426;53.478;10.190;2023-06-04T00:21:36;3.22;;;2.78;;
39740;SDS011;25426;53.478;10.190;2023-06-04T00:24:07;3.25;;;2.70;;
39740;SDS011;25426;53.478;10.190;2023-06-04T00:26:38;3.20;;;2.90;;
39740;SDS011;25426;53.478;10.190;2023-06-04T00:29:09;4.07;;;3.03;;
39740;SDS011;25426;53.478;10.190;2023-06-04T00:31:40;3.87;;;3.00;;
39740;SDS011;25426;53.478;10.190;2023-06-04T00:34:11;5.60;;;2.92;;
39740;SDS011;25426;53.478;10.190;2023-06-04T00:36:42;3.88;;;3.05;;
39740;SDS011;25426;53.478;10.190;2023-06-04T00:39:13;5.10;;;3.13;;
39740;SDS011;25426;53.478;10.190;2023-06-04T00:41:44;2.88;;;2.58;;
39740;SDS011;25426;53.478;10.190;2023-06-04T00:44:16;5.70;;;3.30;;
39740;SDS011;25426;53.478;10.190;2023-06-04T00:46:47;4.47;;;3.67;;
39740;SDS011;25426;53.478;10.190;2023-06-04T00:49:20;3.95;;;3.28;;
39740;SDS011;25426;53.478;10.190;2023-06-04T00:51:51;4.00;;;2.90;;
39740;SDS011;25426;53.478;10.190;2023-06-04T00:54:22;3.30;;;2.90;;
39740;SDS011;25426;53.478;10.190;2023-06-04T00:56:53;4.00;;;2.77;;
39740;SDS011;25426;53.478;10.190;2023-06-04T00:59:24;3.03;;;2.72;;
39740;SDS011;25426;53.478;10.190;2023-06-04T01:07:45;4.20;;;3.08;;
39740;SDS011;25426;53.478;10.190;2023-06-04T01:10:17;3.40;;;2.90;;
39740;SDS011;25426;53.478;10.190;2023-06-04T01:12:48;3.25;;;2.85;;
39740;SDS011;25426;53.478;10.190;2023-06-04T01:15:19;3.45;;;3.10;;
39740;SDS011;25426;53.478;10.190;2023-06-04T01:17:51;4.00;;;2.80;;
39740;SDS011;25426;53.478;10.190;2023-06-04T01:20:34;4.00;;;2.97;;
39740;SDS011;25426;53.478;10.190;2023-06-04T01:23:32;3.80;;;3.03;;
39740;SDS011;25426;53.478;10.190;2023-06-04T01:26:30;3.75;;;3.28;;
39740;SDS011;25426;53.478;10.190;2023-06-04T01:29:02;5.90;;;2.97;;
39740;SDS011;25426;53.478;10.190;2023-06-04T01:31:33;4.03;;;3.33;;
39740;SDS011;25426;53.478;10.190;2023-06-04T01:34:07;4.28;;;3.10;;
39740;SDS011;25426;53.478;10.190;2023-06-04T01:36:40;3.88;;;3.00;;
39740;SDS011;25426;53.478;10.190;2023-06-04T01:39:11;3.85;;;3.33;;
39740;SDS011;25426;53.478;10.190;2023-06-04T01:41:42;4.15;;;3.17;;
39740;SDS011;25426;53.478;10.190;2023-06-04T01:44:13;4.10;;;3.10;;
39740;SDS011;25426;53.478;10.190;2023-06-04T01:46:43;3.83;;;3.42;;
39740;SDS011;25426;53.478;10.190;2023-06-04T01:49:14;4.70;;;3.00;;
39740;SDS011;25426;53.478;10.190;2023-06-04T01:51:45;3.35;;;3.05;;
39740;SDS011;25426;53.478;10.190;2023-06-04T01:54:16;3.38;;;3.08;;
39740;SDS011;25426;53.478;10.190;2023-06-04T01:56:47;3.53;;;2.87;;
39740;SDS011;25426;53.478;10.190;2023-06-04T01:59:18;3.50;;;3.20;;
39740;SDS011;25426;53.478;10.190;2023-06-04T02:01:50;6.47;;;3.20;;
39740;SDS011;25426;53.478;10.190;2023-06-04T02:04:21;3.67;;;3.27;;
39740;SDS011;25426;53.478;10.190;2023-06-04T02:06:53;3.50;;;3.08;;
39740;SDS011;25426;53.478;10.190;2023-06-04T02:09:24;3.70;;;2.97;;
39740;SDS011;25426;53.478;10.190;2023-06-04T02:11:56;3.63;;;3.08;;
39740;SDS011;25426;53.478;10.190;2023-06-04T02:14:27;4.05;;;2.90;;
39740;SDS011;25426;53.478;10.190;2023-06-04T02:16:58;4.60;;;3.10;;
39740;SDS011;25426;53.478;10.190;2023-06-04T02:19:30;3.30;;;3.00;;
39740;SDS011;25426;53.478;10.190;2023-06-04T02:22:04;4.28;;;3.50;;
39740;SDS011;25426;53.478;10.190;2023-06-04T02:24:35;3.20;;;2.90;;
39740;SDS011;25426;53.478;10.190;2023-06-04T02:27:09;3.60;;;3.00;;
39740;SDS011;25426;53.478;10.190;2023-06-04T02:29:41;3.20;;;2.78;;
39740;SDS011;25426;53.478;10.190;2023-06-04T02:32:13;3.30;;;3.00;;
39740;SDS011;25426;53.478;10.190;2023-06-04T02:34:44;4.00;;;3.30;;
39740;SDS011;25426;53.478;10.190;2023-06-04T02:37:15;4.32;;;2.95;;
39740;SDS011;25426;53.478;10.190;2023-06-04T02:39:46;3.38;;;2.95;;
39740;SDS011;25426;53.478;10.190;2023-06-04T02:42:18;4.82;;;3.15;;
39740;SDS011;25426;53.478;10.190;2023-06-04T02:44:49;4.10;;;3.42;;
39740;SDS011;25426;53.478;10.190;2023-06-04T02:47:19;4.38;;;3.00;;
39740;SDS011;25426;53.478;10.190;2023-06-04T02:49:50;3.28;;;2.97;;
39740;SDS011;25426;53.478;10.190;2023-06-04T02:52:22;4.03;;;3.30;;
39740;SDS011;25426;53.478;10.190;2023-06-04T02:54:55;3.53;;;3.22;;
39740;SDS011;25426;53.478;10.190;2023-06-04T02:57:27;3.67;;;3.30;;
39740;SDS011;25426;53.478;10.190;2023-06-04T02:59:58;4.37;;;3.10;;
39740;SDS011;25426;53.478;10.190;2023-06-04T03:02:30;4.88;;;3.25;;
39740;SDS011;25426;53.478;10.190;2023-06-04T03:05:00;3.70;;;3.35;;
39740;SDS011;25426;53.478;10.190;2023-06-04T03:07:32;3.75;;;3.38;;
39740;SDS011;25426;53.478;10.190;2023-06-04T03:10:03;4.65;;;3.42;;
39740;SDS011;25426;53.478;10.190;2023-06-04T03:12:35;3.53;;;3.20;;
39740;SDS011;25426;53.478;10.190;2023-06-04T03:15:07;5.05;;;3.50;;
39740;SDS011;25426;53.478;10.190;2023-06-04T03:17:39;3.92;;;3.53;;
39740;SDS011;25426;53.478;10.190;2023-06-04T03:20:11;4.90;;;3.10;;
39740;SDS011;25426;53.478;10.190;2023-06-04T03:22:42;5.30;;;3.73;;
39740;SDS011;25426;53.478;10.190;2023-06-04T03:25:13;4.97;;;3.67;;
39740;SDS011;25426;53.478;10.190;2023-06-04T03:27:44;4.45;;;4.00;;
39740;SDS011;25426;53.478;10.190;2023-06-04T03:30:15;3.97;;;3.63;;
39740;SDS011;25426;53.478;10.190;2023-06-04T03:32:56;3.85;;;3.40;;
39740;SDS011;25426;53.478;10.190;2023-06-04T03:35:27;5.40;;;3.92;;
39740;SDS011;25426;53.478;10.190;2023-06-04T03:37:59;4.70;;;3.55;;
39740;SDS011;25426;53.478;10.190;2023-06-04T03:40:31;4.63;;;4.00;;
39740;SDS011;25426;53.478;10.190;2023-06-04T03:43:02;7.25;;;3.97;;
39740;SDS011;25426;53.478;10.190;2023-06-04T03:45:35;4.07;;;3.67;;
39740;SDS011;25426;53.478;10.190;2023-06-04T03:48:06;4.07;;;3.72;;
39740;SDS011;25426;53.478;10.190;2023-06-04T03:50:39;4.32;;;3.90;;
39740;SDS011;25426;53.478;10.190;2023-06-04T03:53:11;4.85;;;4.07;;
39740;SDS011;25426;53.478;10.190;2023-06-04T03:55:42;4.57;;;3.83;;
39740;SDS011;25426;53.478;10.190;2023-06-04T03:58:13;4.90;;;3.92;;
39740;SDS011;25426;53.478;10.190;2023-06-04T04:00:48;4.57;;;3.97;;
39740;SDS011;25426;53.478;10.190;2023-06-04T04:03:20;5.95;;;4.78;;
39740;SDS011;25426;53.478;10.190;2023-06-04T04:05:52;4.63;;;4.20;;
39740;SDS011;25426;53.478;10.190;2023-06-04T04:08:23;5.55;;;4.10;;
39740;SDS011;25426;53.478;10.190;2023-06-04T04:10:55;5.20;;;4.32;;
39740;SDS011;25426;53.478;10.190;2023-06-04T04:13:29;4.63;;;4.07;;
39740;SDS011;25426;53.478;10.190;2023-06-04T04:16:00;4.87;;;4.07;;
39740;SDS011;25426;53.478;10.190;2023-06-04T04:18:34;4.82;;;4.13;;
39740;SDS011;25426;53.478;10.190;2023-06-04T04:21:06;4.93;;;4.22;;
39740;SDS011;25426;53.478;10.190;2023-06-04T04:23:38;6.67;;;4.17;;
39740;SDS011;25426;53.478;10.190;2023-06-04T04:26:13;5.07;;;3.70;;
39740;SDS011;25426;53.478;10.190;2023-06-04T04:28:47;5.75;;;4.43;;
39740;SDS011;25426;53.478;10.190;2023-06-04T04:31:18;4.20;;;3.70;;
39740;SDS011;25426;53.478;10.190;2023-06-04T04:33:50;4.07;;;3.60;;
39740;SDS011;25426;53.478;10.190;2023-06-04T04:36:21;4.45;;;3.53;;
39740;SDS011;25426;53.478;10.190;2023-06-04T04:38:53;3.97;;;3.45;;
39740;SDS011;25426;53.478;10.190;2023-06-04T04:41:34;4.77;;;3.70;;
39740;SDS011;25426;53.478;10.190;2023-06-04T04:44:06;3.97;;;3.33;;
39740;SDS011;25426;53.478;10.190;2023-06-04T04:46:37;4.27;;;3.30;;
39740;SDS011;25426;53.478;10.190;2023-06-04T04:49:08;4.05;;;2.92;;
39740;SDS011;25426;53.478;10.190;2023-06-04T04:51:39;4.13;;;3.00;;
39740;SDS011;25426;53.478;10.190;2023-06-04T04:54:10;4.72;;;2.63;;
39740;SDS011;25426;53.478;10.190;2023-06-04T04:56:42;3.57;;;2.97;;
39740;SDS011;25426;53.478;10.190;2023-06-04T04:59:13;3.05;;;2.58;;
39740;SDS011;25426;53.478;10.190;2023-06-04T05:01:44;4.30;;;2.70;;
39740;SDS011;25426;53.478;10.190;2023-06-04T05:04:15;3.60;;;3.10;;
39740;SDS011;25426;53.478;10.190;2023-06-04T05:06:49;4.90;;;2.87;;
39740;SDS011;25426;53.478;10.190;2023-06-04T05:09:20;3.92;;;2.80;;
39740;SDS011;25426;53.478;10.190;2023-06-04T05:11:51;2.90;;;2.60;;
39740;SDS011;25426;53.478;10.190;2023-06-04T05:14:24;4.77;;;2.50;;
39740;SDS011;25426;53.478;10.190;2023-06-04T05:16:55;3.92;;;2.60;;
39740;SDS011;25426;53.478;10.190;2023-06-04T05:19:29;2.90;;;2.50;;
39740;SDS011;25426;53.478;10.190;2023-06-04T05:22:03;4.23;;;2.67;;
39740;SDS011;25426;53.478;10.190;2023-06-04T05:24:34;3.35;;;2.63;;
39740;SDS011;25426;53.478;10.190;2023-06-04T05:27:08;3.92;;;2.70;;
39740;SDS011;25426;53.478;10.190;2023-06-04T05:29:40;2.97;;;2.55;;
39740;SDS011;25426;53.478;10.190;2023-06-04T05:32:11;4.07;;;2.40;;
39740;SDS011;25426;53.478;10.190;2023-06-04T05:34:43;3.95;;;2.70;;
39740;SDS011;25426;53.478;10.190;2023-06-04T05:37:14;5.43;;;2.42;;
39740;SDS011;25426;53.478;10.190;2023-06-04T05:39:46;4.03;;;2.47;;
39740;SDS011;25426;53.478;10.190;2023-06-04T05:42:19;3.15;;;2.28;;
39740;SDS011;25426;53.478;10.190;2023-06-04T05:44:50;3.28;;;2.53;;
39740;SDS011;25426;53.478;10.190;2023-06-04T05:47:23;3.35;;;2.45;;
39740;SDS011;25426;53.478;10.190;2023-06-04T05:49:55;3.00;;;2.40;;
39740;SDS011;25426;53.478;10.190;2023-06-04T05:52:31;4.20;;;2.55;;
39740;SDS011;25426;53.478;10.190;2023-06-04T05:55:10;3.10;;;2.17;;
39740;SDS011;25426;53.478;10.190;2023-06-04T05:57:44;5.72;;;2.42;;
39740;SDS011;25426;53.478;10.190;2023-06-04T06:00:15;6.78;;;2.50;;
39740;SDS011;25426;53.478;10.190;2023-06-04T06:02:46;3.45;;;2.05;;
39740;SDS011;25426;53.478;10.190;2023-06-04T06:05:36;4.13;;;2.28;;
39740;SDS011;25426;53.478;10.190;2023-06-04T06:08:10;3.40;;;2.30;;
39740;SDS011;25426;53.478;10.190;2023-06-04T06:10:43;2.45;;;2.08;;
39740;SDS011;25426;53.478;10.190;2023-06-04T06:13:14;2.37;;;2.00;;
39740;SDS011;25426;53.478;10.190;2023-06-04T06:15:46;2.35;;;1.70;;
39740;SDS011;25426;53.478;10.190;2023-06-04T06:18:19;2.58;;;1.90;;
39740;SDS011;25426;53.478;10.190;2023-06-04T06:20:50;3.28;;;2.08;;
39740;SDS011;25426;53.478;10.190;2023-06-04T06:23:21;3.95;;;1.80;;
39740;SDS011;25426;53.478;10.190;2023-06-04T06:25:54;3.40;;;1.90;;
39740;SDS011;25426;53.478;10.190;2023-06-04T06:28:29;5.07;;;1.87;;
39740;SDS011;25426;53.478;10.190;2023-06-04T06:31:00;2.17;;;1.80;;
39740;SDS011;25426;53.478;10.190;2023-06-04T06:33:32;2.20;;;2.00;;
39740;SDS011;25426;53.478;10.190;2023-06-04T06:36:03;2.55;;;1.80;;
39740;SDS011;25426;53.478;10.190;2023-06-04T06:38:34;3.85;;;1.70;;
39740;SDS011;25426;53.478;10.190;2023-06-04T06:41:05;4.33;;;2.13;;
39740;SDS011;25426;53.478;10.190;2023-06-04T06:43:36;2.23;;;1.67;;
39740;SDS011;25426;53.478;10.190;2023-06-04T06:46:07;2.03;;;1.60;;
39740;SDS011;25426;53.478;10.190;2023-06-04T06:48:38;5.13;;;1.90;;
39740;SDS011;25426;53.478;10.190;2023-06-04T06:51:11;2.70;;;1.63;;
39740;SDS011;25426;53.478;10.190;2023-06-04T06:53:42;3.30;;;1.67;;
39740;SDS011;25426;53.478;10.190;2023-06-04T06:56:14;3.47;;;1.88;;
39740;SDS011;25426;53.478;10.190;2023-06-04T06:58:45;3.75;;;1.90;;
39740;SDS011;25426;53.478;10.190;2023-06-04T07:01:16;3.95;;;2.20;;
39740;SDS011;25426;53.478;10.190;2023-06-04T07:03:47;3.92;;;1.90;;
39740;SDS011;25426;53.478;10.190;2023-06-04T07:06:18;2.83;;;1.70;;
39740;SDS011;25426;53.478;10.190;2023-06-04T07:08:49;3.22;;;1.65;;
39740;SDS011;25426;53.478;10.190;2023-06-04T07:11:20;4.43;;;1.70;;
39740;SDS011;25426;53.478;10.190;2023-06-04T07:13:51;2.17;;;1.57;;
39740;SDS011;25426;53.478;10.190;2023-06-04T07:16:22;3.17;;;2.15;;
39740;SDS011;25426;53.478;10.190;2023-06-04T07:18:53;3.10;;;1.80;;
39740;SDS011;25426;53.478;10.190;2023-06-04T07:21:24;4.90;;;2.05;;
39740;SDS011;25426;53.478;10.190;2023-06-04T07:23:55;2.75;;;1.30;;
39740;SDS011;25426;53.478;10.190;2023-06-04T07:26:26;3.55;;;1.50;;
39740;SDS011;25426;53.478;10.190;2023-06-04T07:29:00;2.50;;;1.38;;
39740;SDS011;25426;53.478;10.190;2023-06-04T07:31:31;4.00;;;1.90;;
39740;SDS011;25426;53.478;10.190;2023-06-04T07:34:02;5.10;;;1.50;;
39740;SDS011;25426;53.478;10.190;2023-06-04T07:39:21;2.90;;;1.42;;
39740;SDS011;25426;53.478;10.190;2023-06-04T07:42:10;3.53;;;1.35;;
39740;SDS011;25426;53.478;10.190;2023-06-04T07:44:41;4.00;;;1.40;;
39740;SDS011;25426;53.478;10.190;2023-06-04T07:47:13;4.03;;;1.60;;
39740;SDS011;25426;53.478;10.190;2023-06-04T07:49:44;2.40;;;1.33;;
39740;SDS011;25426;53.478;10.190;2023-06-04T07:52:16;3.17;;;1.67;;
39740;SDS011;25426;53.478;10.190;2023-06-04T07:54:47;5.27;;;1.60;;
39740;SDS011;25426;53.478;10.190;2023-06-04T07:57:18;3.38;;;1.73;;
39740;SDS011;25426;53.478;10.190;2023-06-04T07:59:49;4.82;;;1.90;;
39740;SDS011;25426;53.478;10.190;2023-06-04T08:02:20;4.32;;;1.60;;
39740;SDS011;25426;53.478;10.190;2023-06-04T08:04:53;3.53;;;1.33;;
39740;SDS011;25426;53.478;10.190;2023-06-04T08:07:24;5.05;;;1.50;;
39740;SDS011;25426;53.478;10.190;2023-06-04T08:09:55;3.58;;;1.55;;
39740;SDS011;25426;53.478;10.190;2023-06-04T08:12:26;4.10;;;1.23;;
39740;SDS011;25426;53.478;10.190;2023-06-04T08:14:57;3.55;;;1.50;;
39740;SDS011;25426;53.478;10.190;2023-06-04T08:17:28;3.40;;;1.60;;
39740;SDS011;25426;53.478;10.190;2023-06-04T08:19:59;2.73;;;1.50;;
39740;SDS011;25426;53.478;10.190;2023-06-04T08:22:31;2.75;;;1.65;;
39740;SDS011;25426;53.478;10.190;2023-06-04T08:25:03;3.33;;;1.58;;
39740;SDS011;25426;53.478;10.190;2023-06-04T08:27:37;2.70;;;1.20;;
39740;SDS011;25426;53.478;10.190;2023-06-04T08:30:08;4.03;;;1.40;;
39740;SDS011;25426;53.478;10.190;2023-06-04T08:32:39;2.77;;;1.30;;
39740;SDS011;25426;53.478;10.190;2023-06-04T08:35:11;3.20;;;1.40;;
39740;SDS011;25426;53.478;10.190;2023-06-04T08:37:41;3.80;;;1.50;;
39740;SDS011;25426;53.478;10.190;2023-06-04T08:40:12;3.42;;;1.40;;
39740;SDS011;25426;53.478;10.190;2023-06-04T08:42:43;2.93;;;1.30;;
39740;SDS011;25426;53.478;10.190;2023-06-04T08:45:15;3.85;;;1.23;;
39740;SDS011;25426;53.478;10.190;2023-06-04T08:47:48;3.08;;;1.35;;
39740;SDS011;25426;53.478;10.190;2023-06-04T08:50:21;4.18;;;1.00;;
39740;SDS011;25426;53.478;10.190;2023-06-04T08:52:55;2.40;;;1.10;;
39740;SDS011;25426;53.478;10.190;2023-06-04T08:55:26;2.90;;;1.08;;
39740;SDS011;25426;53.478;10.190;2023-06-04T08:57:58;5.00;;;1.20;;
39740;SDS011;25426;53.478;10.190;2023-06-04T09:00:30;1.65;;;0.93;;
39740;SDS011;25426;53.478;10.190;2023-06-04T09:03:01;2.70;;;1.00;;
39740;SDS011;25426;53.478;10.190;2023-06-04T09:05:35;4.05;;;1.42;;
39740;SDS011;25426;53.478;10.190;2023-06-04T09:08:09;1.80;;;1.17;;
39740;SDS011;25426;53.478;10.190;2023-06-04T09:10:41;2.10;;;1.10;;
39740;SDS011;25426;53.478;10.190;2023-06-04T09:13:16;2.67;;;1.40;;
39740;SDS011;25426;53.478;10.190;2023-06-04T09:16:02;2.45;;;1.23;;
39740;SDS011;25426;53.478;10.190;2023-06-04T09:18:35;2.80;;;1.23;;
39740;SDS011;25426;53.478;10.190;2023-06-04T09:21:07;2.70;;;1.40;;
39740;SDS011;25426;53.478;10.190;2023-06-04T09:23:45;3.85;;;1.33;;
39740;SDS011;25426;53.478;10.190;2023-06-04T09:26:17;2.50;;;1.10;;
39740;SDS011;25426;53.478;10.190;2023-06-04T09:28:48;3.87;;;1.20;;
39740;SDS011;25426;53.478;10.190;2023-06-04T09:31:19;2.95;;;1.35;;
39740;SDS011;25426;53.478;10.190;2023-06-04T09:33:52;2.47;;;1.40;;
39740;SDS011;25426;53.478;10.190;2023-06-04T09:36:23;2.30;;;1.07;;
39740;SDS011;25426;53.478;10.190;2023-06-04T09:39:02;2.85;;;1.40;;
39740;SDS011;25426;53.478;10.190;2023-06-04T09:41:33;3.17;;;1.20;;
39740;SDS011;25426;53.478;10.190;2023-06-04T09:44:04;2.67;;;1.35;;
39740;SDS011;25426;53.478;10.190;2023-06-04T09:46:36;3.63;;;1.20;;
39740;SDS011;25426;53.478;10.190;2023-06-04T09:49:07;3.05;;;1.15;;
39740;SDS011;25426;53.478;10.190;2023-06-04T09:51:46;2.97;;;1.30;;
39740;SDS011;25426;53.478;10.190;2023-06-04T09:54:21;1.67;;;1.00;;
39740;SDS011;25426;53.478;10.190;2023-06-04T09:56:52;3.13;;;1.10;;
39740;SDS011;25426;53.478;10.190;2023-06-04T09:59:22;1.83;;;1.20;;
39740;SDS011;25426;53.478;10.190;2023-06-04T10:01:54;3.10;;;1.60;;
39740;SDS011;25426;53.478;10.190;2023-06-04T10:04:25;3.00;;;1.48;;
39740;SDS011;25426;53.478;10.190;2023-06-04T10:06:57;3.00;;;1.45;;
39740;SDS011;25426;53.478;10.190;2023-06-04T10:09:29;4.03;;;1.40;;
39740;SDS011;25426;53.478;10.190;2023-06-04T10:12:00;4.88;;;1.30;;
39740;SDS011;25426;53.478;10.190;2023-06-04T10:14:35;4.95;;;1.30;;
39740;SDS011;25426;53.478;10.190;2023-06-04T10:17:15;1.85;;;1.00;;
39740;SDS011;25426;53.478;10.190;2023-06-04T10:19:47;2.30;;;1.30;;
39740;SDS011;25426;53.478;10.190;2023-06-04T10:22:24;2.87;;;1.13;;
39740;SDS011;25426;53.478;10.190;2023-06-04T10:24:55;2.70;;;1.20;;
39740;SDS011;25426;53.478;10.190;2023-06-04T10:27:27;4.88;;;1.30;;
39740;SDS011;25426;53.478;10.190;2023-06-04T10:29:58;3.13;;;1.45;;
39740;SDS011;25426;53.478;10.190;2023-06-04T10:32:29;2.40;;;1.20;;
39740;SDS011;25426;53.478;10.190;2023-06-04T10:35:04;2.60;;;1.13;;
39740;SDS011;25426;53.478;10.190;2023-06-04T10:37:38;5.22;;;1.40;;
39740;SDS011;25426;53.478;10.190;2023-06-04T10:40:08;2.60;;;1.40;;
39740;SDS011;25426;53.478;10.190;2023-06-04T10:42:41;4.00;;;1.67;;
39740;SDS011;25426;53.478;10.190;2023-06-04T10:45:13;2.33;;;1.30;;
39740;SDS011;25426;53.478;10.190;2023-06-04T10:47:44;3.28;;;1.40;;
39740;SDS011;25426;53.478;10.190;2023-06-04T10:50:14;2.13;;;1.30;;
39740;SDS011;25426;53.478;10.190;2023-06-04T10:52:52;4.53;;;1.53;;
39740;SDS011;25426;53.478;10.190;2023-06-04T10:55:25;3.53;;;1.58;;
39740;SDS011;25426;53.478;10.190;2023-06-04T11:00:35;2.67;;;1.50;;
39740;SDS011;25426;53.478;10.190;2023-06-04T11:03:19;4.53;;;1.67;;
39740;SDS011;25426;53.478;10.190;2023-06-04T11:05:50;3.30;;;1.47;;
39740;SDS011;25426;53.478;10.190;2023-06-04T11:08:28;4.50;;;1.92;;
39740;SDS011;25426;53.478;10.190;2023-06-04T11:11:09;5.18;;;1.98;;
39740;SDS011;25426;53.478;10.190;2023-06-04T11:13:42;3.05;;;1.70;;
39740;SDS011;25426;53.478;10.190;2023-06-04T11:16:17;5.50;;;1.70;;
39740;SDS011;25426;53.478;10.190;2023-06-04T11:18:53;4.80;;;1.70;;
39740;SDS011;25426;53.478;10.190;2023-06-04T11:21:26;4.20;;;1.40;;
39740;SDS011;25426;53.478;10.190;2023-06-04T11:23:58;2.60;;;1.30;;
39740;SDS011;25426;53.478;10.190;2023-06-04T11:26:33;3.50;;;1.40;;
39740;SDS011;25426;53.478;10.190;2023-06-04T11:29:06;3.40;;;1.60;;
39740;SDS011;25426;53.478;10.190;2023-06-04T11:34:24;3.03;;;1.70;;
39740;SDS011;25426;53.478;10.190;2023-06-04T11:37:09;3.88;;;1.50;;
39740;SDS011;25426;53.478;10.190;2023-06-04T11:39:41;3.00;;;1.67;;
39740;SDS011;25426;53.478;10.190;2023-06-04T11:42:14;3.40;;;1.50;;
39740;SDS011;25426;53.478;10.190;2023-06-04T11:44:45;3.88;;;1.50;;
39740;SDS011;25426;53.478;10.190;2023-06-04T11:47:18;2.50;;;1.30;;
39740;SDS011;25426;53.478;10.190;2023-06-04T11:49:56;3.70;;;1.50;;
39740;SDS011;25426;53.478;10.190;2023-06-04T11:52:27;3.10;;;1.57;;
39740;SDS011;25426;53.478;10.190;2023-06-04T11:54:58;4.68;;;1.58;;
39740;SDS011;25426;53.478;10.190;2023-06-04T11:57:29;3.03;;;1.47;;
39740;SDS011;25426;53.478;10.190;2023-06-04T12:00:00;3.97;;;1.80;;
39740;SDS011;25426;53.478;10.190;2023-06-04T12:02:35;2.20;;;1.20;;
39740;SDS011;25426;53.478;10.190;2023-06-04T12:05:11;2.60;;;1.45;;
39740;SDS011;25426;53.478;10.190;2023-06-04T12:07:48;4.22;;;1.40;;
39740;SDS011;25426;53.478;10.190;2023-06-04T12:10:21;2.97;;;1.55;;
39740;SDS011;25426;53.478;10.190;2023-06-04T12:12:54;3.10;;;1.65;;
39740;SDS011;25426;53.478;10.190;2023-06-04T12:15:25;2.53;;;1.52;;
39740;SDS011;25426;53.478;10.190;2023-06-04T12:17:56;2.90;;;1.43;;
39740;SDS011;25426;53.478;10.190;2023-06-04T12:20:38;3.60;;;1.45;;
39740;SDS011;25426;53.478;10.190;2023-06-04T12:23:19;3.00;;;1.40;;
39740;SDS011;25426;53.478;10.190;2023-06-04T12:25:51;3.97;;;1.60;;
39740;SDS011;25426;53.478;10.190;2023-06-04T12:28:22;2.57;;;1.40;;
39740;SDS011;25426;53.478;10.190;2023-06-04T12:30:53;2.60;;;1.50;;
39740;SDS011;25426;53.478;10.190;2023-06-04T12:33:24;3.63;;;1.50;;
39740;SDS011;25426;53.478;10.190;2023-06-04T12:35:55;4.20;;;1.60;;
39740;SDS011;25426;53.478;10.190;2023-06-04T12:38:26;4.47;;;1.90;;
39740;SDS011;25426;53.478;10.190;2023-06-04T12:40:56;3.50;;;3.20;;
39740;SDS011;25426;53.478;10.190;2023-06-04T12:43:27;3.37;;;1.93;;
39740;SDS011;25426;53.478;10.190;2023-06-04T12:46:03;4.33;;;2.00;;
39740;SDS011;25426;53.478;10.190;2023-06-04T12:48:34;3.28;;;1.70;;
39740;SDS011;25426;53.478;10.190;2023-06-04T12:51:06;3.58;;;1.60;;
39740;SDS011;25426;53.478;10.190;2023-06-04T12:53:40;2.83;;;1.77;;
39740;SDS011;25426;53.478;10.190;2023-06-04T12:56:11;2.47;;;1.63;;
39740;SDS011;25426;53.478;10.190;2023-06-04T12:58:42;3.53;;;1.70;;
39740;SDS011;25426;53.478;10.190;2023-06-04T13:01:14;5.33;;;2.63;;
39740;SDS011;25426;53.478;10.190;2023-06-04T13:03:45;5.22;;;2.10;;
39740;SDS011;25426;53.478;10.190;2023-06-04T13:06:16;3.42;;;1.73;;
39740;SDS011;25426;53.478;10.190;2023-06-04T13:08:47;4.00;;;1.80;;
39740;SDS011;25426;53.478;10.190;2023-06-04T13:11:18;3.58;;;1.70;;
39740;SDS011;25426;53.478;10.190;2023-06-04T13:13:49;3.58;;;1.70;;
39740;SDS011;25426;53.478;10.190;2023-06-04T13:16:20;3.38;;;1.70;;
39740;SDS011;25426;53.478;10.190;2023-06-04T13:18:51;3.88;;;1.70;;
39740;SDS011;25426;53.478;10.190;2023-06-04T13:21:23;3.00;;;1.77;;
39740;SDS011;25426;53.478;10.190;2023-06-04T13:23:54;3.05;;;1.70;;
39740;SDS011;25426;53.478;10.190;2023-06-04T13:26:26;4.30;;;1.80;;
39740;SDS011;25426;53.478;10.190;2023-06-04T13:28:57;2.65;;;1.60;;
39740;SDS011;25426;53.478;10.190;2023-06-04T13:31:28;3.05;;;1.75;;
39740;SDS011;25426;53.478;10.190;2023-06-04T13:33:59;3.57;;;1.90;;
39740;SDS011;25426;53.478;10.190;2023-06-04T13:36:29;2.83;;;1.80;;
39740;SDS011;25426;53.478;10.190;2023-06-04T13:39:00;3.53;;;1.67;;
39740;SDS011;25426;53.478;10.190;2023-06-04T13:41:31;4.90;;;2.00;;
39740;SDS011;25426;53.478;10.190;2023-06-04T13:44:02;4.10;;;1.85;;
39740;SDS011;25426;53.478;10.190;2023-06-04T13:46:33;3.42;;;1.52;;
39740;SDS011;25426;53.478;10.190;2023-06-04T13:49:04;2.43;;;1.73;;
39740;SDS011;25426;53.478;10.190;2023-06-04T13:51:35;3.45;;;1.60;;
39740;SDS011;25426;53.478;10.190;2023-06-04T13:54:06;3.70;;;1.83;;
39740;SDS011;25426;53.478;10.190;2023-06-04T13:56:37;3.20;;;1.55;;
39740;SDS011;25426;53.478;10.190;2023-06-04T13:59:08;4.28;;;1.80;;
39740;SDS011;25426;53.478;10.190;2023-06-04T14:01:39;2.67;;;1.67;;
39740;SDS011;25426;53.478;10.190;2023-06-04T14:04:10;4.88;;;1.85;;
39740;SDS011;25426;53.478;10.190;2023-06-04T14:06:41;3.47;;;1.55;;
39740;SDS011;25426;53.478;10.190;2023-06-04T14:09:12;2.42;;;1.70;;
39740;SDS011;25426;53.478;10.190;2023-06-04T14:11:43;5.13;;;1.83;;
39740;SDS011;25426;53.478;10.190;2023-06-04T14:14:14;5.72;;;1.80;;
39740;SDS011;25426;53.478;10.190;2023-06-04T14:16:47;3.53;;;1.70;;
39740;SDS011;25426;53.478;10.190;2023-06-04T14:19:18;8.77;;;1.90;;
39740;SDS011;25426;53.478;10.190;2023-06-04T14:21:49;4.27;;;1.90;;
39740;SDS011;25426;53.478;10.190;2023-06-04T14:24:20;2.97;;;1.65;;
39740;SDS011;25426;53.478;10.190;2023-06-04T14:26:51;2.22;;;1.60;;
39740;SDS011;25426;53.478;10.190;2023-06-04T14:29:22;2.78;;;1.58;;
39740;SDS011;25426;53.478;10.190;2023-06-04T14:31:54;2.08;;;1.60;;
39740;SDS011;25426;53.478;10.190;2023-06-04T14:34:24;4.07;;;2.00;;
39740;SDS011;25426;53.478;10.190;2023-06-04T14:36:56;3.17;;;1.60;;
39740;SDS011;25426;53.478;10.190;2023-06-04T14:39:29;3.17;;;2.00;;
39740;SDS011;25426;53.478;10.190;2023-06-04T14:42:00;3.70;;;1.77;;
39740;SDS011;25426;53.478;10.190;2023-06-04T14:44:31;2.75;;;1.55;;
39740;SDS011;25426;53.478;10.190;2023-06-04T14:47:02;1.90;;;1.50;;
39740;SDS011;25426;53.478;10.190;2023-06-04T14:49:33;2.15;;;1.50;;
39740;SDS011;25426;53.478;10.190;2023-06-04T14:52:04;2.47;;;1.50;;
39740;SDS011;25426;53.478;10.190;2023-06-04T14:54:35;2.17;;;1.50;;
39740;SDS011;25426;53.478;10.190;2023-06-04T14:57:06;3.30;;;1.83;;
39740;SDS011;25426;53.478;10.190;2023-06-04T14:59:37;2.50;;;1.40;;
39740;SDS011;25426;53.478;10.190;2023-06-04T15:02:09;4.47;;;1.73;;
39740;SDS011;25426;53.478;10.190;2023-06-04T15:04:40;3.17;;;1.67;;
39740;SDS011;25426;53.478;10.190;2023-06-04T15:07:14;3.40;;;1.88;;
39740;SDS011;25426;53.478;10.190;2023-06-04T15:09:45;2.90;;;1.52;;
39740;SDS011;25426;53.478;10.190;2023-06-04T15:12:17;3.53;;;2.10;;
39740;SDS011;25426;53.478;10.190;2023-06-04T15:14:49;3.55;;;1.70;;
39740;SDS011;25426;53.478;10.190;2023-06-04T15:17:20;3.55;;;1.60;;